Terminal Aerodrome Forecast
Issued by NWS Denver/Boulder, CO

Home | Current Version | Previous Version | Text Only | Print | Product List | Glossary On
Versions: 1 2 3 4 5 6 7 8 9 10 11 12 13 14 15 16 17 18 19 20 21 22 23 24 25 26 27 28 29 30 31 32 33 34 35 36 37 38 39 40 41 42 43 44 45 46 47 48 49 50
000
FTUS45 KBOU 290740 AAB
TAFDEN
TAF AMD
KDEN 290740Z 2908/3012 06007KT P6SM VCSH SCT045 BKN070
     FM290830 36010KT P6SM VCSH SCT045 BKN070
      TEMPO 2909/2910 -SHRA BKN045
     FM291100 VRB05KT P6SM SCT070 BKN100
     FM291700 08008KT P6SM SCT060 BKN100
      TEMPO 2920/2924 VRB15G30KT -TSRA BKN050CB
     FM300000 10009KT P6SM VCSH SCT070 BKN100
     FM300300 14007KT P6SM SCT080 BKN120
     FM300600 19006KT P6SM FEW080 SCT140=

USA.gov is the U.S. government's official web portal to all federal, state and local government web resources and services.